Portada
METAR-TAF:

METAR-TAF

Aeroports :

Shawbury, Anglaterra

latitud: 52-48N, longitud: 002-40W, altitud: 76 m

Observació

L'informe es va fer fa 48 minuts, a les 21:50 UTC
Vent 5 kt del Oest
Temperatura 9°C
Humitat 81%
Pressió 1006 hPa
Visibilitat 10 km o més

METAR: EGOS 062150Z AUTO 28005KT 9999 BKN038/// 09/06 Q1006

Hora: 22:38 (22:38 UTC)

Pronòstic

L'informe es va fer fa 8 hores i 41 minuts, a les 13:57 UTC
Pronòstic vàlid del 06 a les 15 UTC al 06 a les 18 UTC
Vent 12 kt del Oest amb ràfegues de 22 kt
Visibilitat 10 km o més
Cel ennuvolat a una alçada de 3000 ft
Temporalment
l' 06 a les 15 UTC al 06 a les 17 UTC
Visibilitat: 6000 m
Cel ennuvolat a una alçada de 1800 ft
xàfecs de pluja

TAF: EGOS 061357Z 0615/0618 26012G22KT 9999 BKN030 TEMPO 0615/0617 6000 SHRA BKN018

Observacions i pronòstics meteorològics de més de 4000 aeroports (METAR i TAF).

Les estacions disponibles són els punts grocs i vermells al mapa.

Posi el ratolí al punt desitjat per veure el nom de l'estació.

Feu clic per veure les observacions i els pronòstics meteorològics.

Per canviar el mapa: feu clic els botons verds amb una creu de color negre per apropar; al botó verd amb un guió per allunyar la imatge; o en les fletxes verdes per a mapes adjacents.


METAR-TAF: